»·PEaware :: N69VW NV11-KTOA

N69VW :: NV11-KTOA

FLIGHT INFORMATION

Flight Status: Arrived
Operator: Privately registered:
United States
More flights under this callsign
Pilot: Bill H. (23183)
Aircraft: Unknown
(EPIC)
More flights by this aircraft type
Origin: NV11 Yucca Airstrip
United States
Destination: KTOA Zamperini
United States
More flights between these airports :: More routes between these airports
Route: NV11 KTOA
File this flight plan on PilotEdge
Remarks: +CW / Alphabet Challenge [ZLA] - Epic E1000
Altitude:
(Current/Filed)
8,500ft
Speed:
(Current/Filed)
315kts
Departed: 24-Nov-19 06:24 AM
Arrived: 24-Nov-19 07:17 AM
Distance/Time
Traveled:
220nm/0:53
Distance/Time
To Go:
Arrived

Flight Plot

Page will automatically refresh every two minutes.

Flight plan parsing failed; only flown route is shown


Map Options




Map Legend


Flown Route
Filed Route
Departure Airport
Arrival Airport
Navaid (VOR, NDB)
Fix

Horizontal Profiles

Position Reports

Time Latitude Longitude Heading Altitude Ground
Speed
24-Nov-19 06:21 36.954908 -116.043883 330 3921ft 0kts
24-Nov-19 06:22 36.954910 -116.043884 329 3921ft 1kts
24-Nov-19 06:23 36.945157 -116.036932 140 4394ft 120kts
24-Nov-19 06:24 36.904039 -116.035123 240 6369ft 218kts
24-Nov-19 06:25 36.865796 -116.098763 212 8466ft 252kts
24-Nov-19 06:26 36.798807 -116.150296 211 8502ft 301kts
24-Nov-19 06:27 36.726494 -116.205479 211 8499ft 309kts
24-Nov-19 06:28 36.653023 -116.261416 211 8499ft 310kts
24-Nov-19 06:29 36.579461 -116.317296 211 8499ft 310kts
24-Nov-19 06:30 36.505820 -116.373074 211 8499ft 310kts
24-Nov-19 06:31 36.432196 -116.428740 210 8499ft 310kts
24-Nov-19 06:32 36.358459 -116.484373 211 8499ft 310kts
24-Nov-19 06:33 36.284873 -116.539775 211 8499ft 310kts
24-Nov-19 06:34 36.211150 -116.595153 211 8499ft 310kts
24-Nov-19 06:35 36.137289 -116.650508 210 8499ft 310kts
24-Nov-19 06:36 36.063683 -116.705548 210 8499ft 310kts
24-Nov-19 06:37 35.989752 -116.760711 210 8499ft 310kts
24-Nov-19 06:38 35.915925 -116.815675 210 8499ft 310kts
24-Nov-19 06:39 35.842242 -116.870412 210 8499ft 310kts
24-Nov-19 06:40 35.768354 -116.925179 210 8499ft 310kts
24-Nov-19 06:41 35.696070 -116.978641 210 8499ft 310kts
24-Nov-19 06:42 35.621991 -117.033312 210 8499ft 310kts
24-Nov-19 06:43 35.548104 -117.087722 210 8499ft 310kts
24-Nov-19 06:44 35.474137 -117.142073 210 8499ft 310kts
24-Nov-19 06:45 35.400319 -117.196198 210 8499ft 310kts
24-Nov-19 06:46 35.326253 -117.250386 210 8499ft 310kts
24-Nov-19 06:47 35.252202 -117.304447 210 8499ft 310kts
24-Nov-19 06:48 35.178101 -117.358429 210 8499ft 310kts
24-Nov-19 06:49 35.103949 -117.412332 210 8499ft 310kts
24-Nov-19 06:50 35.029919 -117.466030 210 8499ft 310kts
24-Nov-19 06:52 34.955601 -117.519824 210 8499ft 310kts
24-Nov-19 06:53 34.883073 -117.572209 210 8499ft 310kts
24-Nov-19 06:54 34.808940 -117.625641 210 8499ft 310kts
24-Nov-19 06:55 34.734646 -117.679079 209 8499ft 310kts
24-Nov-19 06:56 34.660528 -117.732277 209 8499ft 310kts
24-Nov-19 06:57 34.585989 -117.785664 209 8499ft 310kts
24-Nov-19 06:58 34.511821 -117.838675 209 8499ft 310kts
24-Nov-19 06:59 34.437355 -117.891787 209 8499ft 310kts
24-Nov-19 07:00 34.362828 -117.944830 209 8499ft 310kts
24-Nov-19 07:01 34.288618 -117.997542 209 8499ft 310kts
24-Nov-19 07:02 34.213937 -118.050497 209 8499ft 310kts
24-Nov-19 07:03 34.139691 -118.103035 209 8499ft 310kts
24-Nov-19 07:04 34.065092 -118.155703 210 8435ft 307kts
24-Nov-19 07:05 34.005107 -118.198010 210 7347ft 204kts
24-Nov-19 07:06 33.962963 -118.227654 210 6268ft 152kts
24-Nov-19 07:07 33.930922 -118.250164 210 5185ft 117kts
24-Nov-19 07:08 33.904474 -118.268736 210 4148ft 106kts
24-Nov-19 07:09 33.878262 -118.287130 210 3163ft 109kts
24-Nov-19 07:10 33.851380 -118.303074 170 2167ft 109kts
24-Nov-19 07:11 33.822752 -118.295281 164 1521ft 107kts
24-Nov-19 07:12 33.786419 -118.254431 122 1491ft 203kts
24-Nov-19 07:12 33.758518 -118.226011 202 1480ft 138kts
24-Nov-19 07:14 33.745002 -118.267071 293 1244ft 162kts
24-Nov-19 07:15 33.775748 -118.301564 329 607ft 140kts
24-Nov-19 07:15 33.795176 -118.326452 306 312ft 109kts
24-Nov-19 07:17 33.805860 -118.343815 288 92ft 0kts
24-Nov-19 07:17 33.805896 -118.345028 220 92ft 6kts
24-Nov-19 07:18 33.805002 -118.346240 284 95ft 7kts
24-Nov-19 07:19 33.806519 -118.347509 269 89ft 7kts
24-Nov-19 07:20 33.805786 -118.347642 358 91ft 6kts
24-Nov-19 07:22 33.806049 -118.347643 0 90ft 0kts
24-Nov-19 07:22 33.806049 -118.347643 0 90ft 0kts
24-Nov-19 07:23 33.806049 -118.347643 0 90ft 0kts

Navigation Log

Ident Type
Flight plan parsing failed, navigation log unavailable